createdAt,value
2023-08-23T00:00:01.601Z,101209.81
2023-08-23T00:02:06.411Z,101201.94
2023-08-23T00:04:09.877Z,101197.47
2023-08-23T00:06:13.186Z,101171.88
2023-08-23T00:08:16.642Z,101199.13
2023-08-23T00:10:20.110Z,101200.94
2023-08-23T00:12:22.472Z,101186.91
2023-08-23T00:14:26.227Z,101175.34
2023-08-23T00:16:29.661Z,101194.84
2023-08-23T00:18:34.374Z,101193.03
2023-08-23T00:20:37.755Z,101190.38
2023-08-23T00:22:41.167Z,101188.63
2023-08-23T00:24:44.468Z,101192.13
2023-08-23T00:26:48.254Z,101187.75
2023-08-23T00:28:51.718Z,101193.00
2023-08-23T00:30:56.002Z,101185.09
2023-08-23T00:32:59.523Z,101179.78
2023-08-23T00:35:04.649Z,101182.34
2023-08-23T00:37:08.089Z,101179.72
2023-08-23T00:39:11.448Z,101178.91
2023-08-23T00:41:14.794Z,101177.06
2023-08-23T00:43:18.113Z,101184.06
2023-08-23T00:45:21.662Z,101177.88
2023-08-23T00:47:25.624Z,101181.47
2023-08-23T00:49:35.077Z,101177.03
2023-08-23T00:51:43.385Z,101178.72
2023-08-23T00:53:48.592Z,101176.03
2023-08-23T00:55:52.060Z,101178.63
2023-08-23T00:57:55.754Z,101188.38
2023-08-23T00:59:59.339Z,101196.28
2023-08-23T01:02:01.730Z,101192.78
2023-08-23T01:04:06.072Z,101190.97
2023-08-23T01:06:21.341Z,101190.13
2023-08-23T01:08:36.621Z,101190.88
2023-08-23T01:10:48.693Z,101164.47
2023-08-23T01:12:57.743Z,101188.22
2023-08-23T01:15:06.853Z,101188.22
2023-08-23T01:17:13.177Z,101188.28
2023-08-23T01:19:45.720Z,101181.88
2023-08-23T01:21:55.194Z,101190.59
2023-08-23T01:24:04.763Z,101190.03
2023-08-23T01:26:08.342Z,101185.63
2023-08-23T01:28:11.938Z,101182.94
2023-08-23T01:30:18.380Z,101176.81
2023-08-23T01:32:33.176Z,101189.16
2023-08-23T01:34:42.467Z,101184.72
2023-08-23T01:36:47.725Z,101177.59
2023-08-23T01:38:52.841Z,101182.03
2023-08-23T01:40:58.361Z,101171.34
2023-08-23T01:43:02.051Z,101171.91
2023-08-23T01:45:06.357Z,101171.13
2023-08-23T01:47:09.805Z,101165.53
2023-08-23T01:49:13.603Z,101156.09
2023-08-23T01:51:17.071Z,101155.75
2023-08-23T01:53:20.428Z,101158.31
2023-08-23T01:55:25.542Z,101158.50
2023-08-23T01:57:31.076Z,101145.84
2023-08-23T01:59:34.780Z,101153.25
2023-08-23T02:01:38.192Z,101143.41
2023-08-23T02:03:41.715Z,101150.72
2023-08-23T02:05:45.237Z,101153.44
2023-08-23T02:07:48.765Z,101163.13
2023-08-23T02:09:52.429Z,101160.63
2023-08-23T02:11:55.849Z,101158.66
2023-08-23T02:14:01.066Z,101157.94
2023-08-23T02:16:07.768Z,101165.72
2023-08-23T02:18:12.803Z,101158.75
2023-08-23T02:20:17.459Z,101159.75
2023-08-23T02:22:20.888Z,101162.44
2023-08-23T02:24:24.363Z,101171.28
2023-08-23T02:26:28.188Z,101168.50
2023-08-23T02:28:31.694Z,101165.81
2023-08-23T02:30:36.834Z,101161.34
2023-08-23T02:32:40.181Z,101170.28
2023-08-23T02:34:42.612Z,101168.34
2023-08-23T02:36:45.962Z,101173.63
2023-08-23T02:38:50.262Z,101178.06
2023-08-23T02:40:56.603Z,101152.34
2023-08-23T02:42:59.931Z,101164.72
2023-08-23T02:45:03.296Z,101161.00
2023-08-23T02:47:08.145Z,101159.19
2023-08-23T02:49:11.604Z,101154.19
2023-08-23T02:51:15.028Z,101149.50
2023-08-23T02:53:18.473Z,101150.44
2023-08-23T02:55:21.810Z,101144.97
2023-08-23T02:57:25.168Z,101138.19
2023-08-23T02:59:28.770Z,101140.88
2023-08-23T03:01:32.171Z,101143.69
2023-08-23T03:03:36.947Z,101142.34
2023-08-23T03:05:40.377Z,101135.34
2023-08-23T03:07:42.705Z,101144.25
2023-08-23T03:09:47.762Z,101145.13
2023-08-23T03:11:51.243Z,101135.44
2023-08-23T03:13:53.710Z,101126.53
2023-08-23T03:15:57.094Z,101138.84
2023-08-23T03:18:00.475Z,101137.84
2023-08-23T03:20:05.971Z,101134.22
2023-08-23T03:22:10.523Z,101134.75
2023-08-23T03:24:14.099Z,101134.63
2023-08-23T03:26:17.578Z,101146.06
2023-08-23T03:28:22.880Z,101144.28
2023-08-23T03:30:26.400Z,101137.34
2023-08-23T03:32:29.916Z,101136.28
2023-08-23T03:34:34.340Z,101139.09
2023-08-23T03:36:39.087Z,101139.88
2023-08-23T03:38:42.477Z,101137.06
2023-08-23T03:40:45.854Z,101136.50
2023-08-23T03:42:49.298Z,101131.97
2023-08-23T03:44:52.850Z,101136.25
2023-08-23T03:46:58.082Z,101137.78
2023-08-23T03:49:01.542Z,101144.91
2023-08-23T03:51:05.129Z,101136.84
2023-08-23T03:53:09.896Z,101131.56
2023-08-23T03:55:14.195Z,101133.31
2023-08-23T03:57:18.797Z,101123.66
2023-08-23T03:59:22.276Z,101128.09
2023-08-23T04:01:25.718Z,101124.94
2023-08-23T04:03:29.451Z,101120.25
2023-08-23T04:05:41.190Z,101130.91
2023-08-23T04:07:44.612Z,101123.34
2023-08-23T04:09:49.368Z,101135.78
2023-08-23T04:11:52.711Z,101130.59
2023-08-23T04:13:55.129Z,101139.53
2023-08-23T04:16:03.010Z,101130.72
2023-08-23T04:18:07.623Z,101130.75
2023-08-23T04:20:14.934Z,101133.31
2023-08-23T04:22:18.689Z,101141.53
2023-08-23T04:24:22.510Z,101139.44
2023-08-23T04:26:27.231Z,101130.53
2023-08-23T04:28:29.687Z,101137.75
2023-08-23T04:30:33.121Z,101139.72
2023-08-23T04:32:36.620Z,101135.19
2023-08-23T04:34:39.257Z,101121.56
2023-08-23T04:36:42.621Z,101125.53
2023-08-23T04:38:46.222Z,101138.59
2023-08-23T04:40:50.753Z,101146.47
2023-08-23T04:42:55.625Z,101135.91
2023-08-23T04:45:01.887Z,101143.84
2023-08-23T04:47:06.385Z,101144.69
2023-08-23T04:49:10.025Z,101144.63
2023-08-23T04:51:14.000Z,101132.19
2023-08-23T04:53:17.669Z,101142.78
2023-08-23T04:55:21.793Z,101139.06
2023-08-23T04:57:25.224Z,101147.88
2023-08-23T04:59:29.981Z,101152.72
2023-08-23T05:01:33.401Z,101149.16
2023-08-23T05:03:37.605Z,101150.00
2023-08-23T05:05:42.950Z,101150.28
2023-08-23T05:07:46.781Z,101147.56
2023-08-23T05:09:50.478Z,101156.19
2023-08-23T05:11:53.909Z,101147.16
2023-08-23T05:13:57.872Z,101152.47
2023-08-23T05:16:02.750Z,101153.34
2023-08-23T05:18:06.568Z,101154.31
2023-08-23T05:20:11.172Z,101147.28
2023-08-23T05:22:14.723Z,101148.97
2023-08-23T05:24:17.289Z,101143.81
2023-08-23T05:26:20.870Z,101150.38
2023-08-23T05:28:24.949Z,101162.16
2023-08-23T05:30:28.321Z,101162.56
2023-08-23T05:32:34.386Z,101156.66
2023-08-23T05:34:38.117Z,101152.06
2023-08-23T05:36:41.721Z,101151.81
2023-08-23T05:38:48.318Z,101152.59
2023-08-23T05:40:52.862Z,101149.91
2023-08-23T05:42:56.264Z,101121.53
2023-08-23T05:45:00.770Z,101163.50
2023-08-23T05:47:04.346Z,101169.09
2023-08-23T05:49:09.197Z,101163.47
2023-08-23T05:51:12.616Z,101165.13
2023-08-23T05:53:19.765Z,101164.63
2023-08-23T05:55:22.349Z,101166.53
2023-08-23T05:57:25.744Z,101172.72
2023-08-23T05:59:29.183Z,101166.44
2023-08-23T06:01:32.785Z,101172.84
2023-08-23T06:03:36.281Z,101166.31
2023-08-23T06:05:42.152Z,101170.59
2023-08-23T06:07:46.074Z,101169.00
2023-08-23T06:09:48.805Z,101173.13
2023-08-23T06:11:52.339Z,101173.81
2023-08-23T06:13:57.781Z,101163.13
2023-08-23T06:16:01.636Z,101164.06
2023-08-23T06:18:04.871Z,101162.78
2023-08-23T06:20:09.606Z,101162.75
2023-08-23T06:22:14.410Z,101163.94
2023-08-23T06:24:17.919Z,101163.66
2023-08-23T06:26:21.299Z,101170.72
2023-08-23T06:28:24.717Z,101162.91
2023-08-23T06:30:28.424Z,101157.59
2023-08-23T06:32:31.937Z,101157.50
2023-08-23T06:34:36.473Z,101160.06
2023-08-23T06:36:39.882Z,101155.66
2023-08-23T06:38:44.780Z,101162.75
2023-08-23T06:40:48.228Z,101158.38
2023-08-23T06:42:51.841Z,101164.56
2023-08-23T06:44:57.090Z,101171.94
2023-08-23T06:47:00.543Z,101167.31
2023-08-23T06:49:05.570Z,101165.53
2023-08-23T06:51:08.946Z,101177.84
2023-08-23T06:53:12.484Z,101167.25
2023-08-23T06:55:17.353Z,101168.97
2023-08-23T06:57:22.708Z,101165.47
2023-08-23T06:59:26.457Z,101162.84
2023-08-23T07:01:29.876Z,101167.25
2023-08-23T07:03:35.387Z,101169.03
2023-08-23T07:05:38.789Z,101170.81
2023-08-23T07:07:42.200Z,101167.31
2023-08-23T07:09:45.576Z,101176.16
2023-08-23T07:11:50.309Z,101182.34
2023-08-23T07:13:53.705Z,101191.22
2023-08-23T07:15:57.143Z,101184.22
2023-08-23T07:18:00.670Z,101187.72
2023-08-23T07:20:03.471Z,101186.91
2023-08-23T07:22:06.835Z,101181.56
2023-08-23T07:24:11.799Z,101197.47
2023-08-23T07:26:14.709Z,101200.16
2023-08-23T07:28:19.405Z,101191.28
2023-08-23T07:30:23.036Z,101195.75
2023-08-23T07:32:26.744Z,101212.50
2023-08-23T07:34:30.083Z,101202.81
2023-08-23T07:36:33.450Z,101204.59
2023-08-23T07:38:37.435Z,101202.84
2023-08-23T07:40:40.845Z,101216.94
2023-08-23T07:42:44.161Z,101204.59
2023-08-23T07:44:48.982Z,101214.28
2023-08-23T07:46:52.745Z,101218.75
2023-08-23T07:48:56.236Z,101210.81
2023-08-23T07:51:01.669Z,101210.81
2023-08-23T07:53:06.232Z,101221.41
2023-08-23T07:55:10.612Z,101218.72
2023-08-23T07:57:14.688Z,101218.72
2023-08-23T07:59:18.094Z,101222.25
2023-08-23T08:01:22.864Z,101225.78
2023-08-23T08:03:29.416Z,101224.00
2023-08-23T08:05:33.022Z,101219.59
2023-08-23T08:07:56.077Z,101216.03
2023-08-23T08:09:58.882Z,101235.44
2023-08-23T08:12:02.270Z,101231.03
2023-08-23T08:14:05.655Z,101238.09
2023-08-23T08:16:10.682Z,101239.84
2023-08-23T08:18:15.647Z,101234.56
2023-08-23T08:20:19.871Z,101236.31
2023-08-23T08:22:23.248Z,101236.31
2023-08-23T08:24:30.025Z,101235.38
2023-08-23T08:26:33.366Z,101238.88
2023-08-23T08:28:39.149Z,101236.16
2023-08-23T08:30:42.609Z,101235.28
2023-08-23T08:32:46.362Z,101243.13
2023-08-23T08:34:51.224Z,101243.09
2023-08-23T08:36:54.878Z,101241.34
2023-08-23T08:38:58.267Z,101243.91
2023-08-23T08:41:01.967Z,101237.84
2023-08-23T08:43:06.782Z,101229.03
2023-08-23T08:45:12.142Z,101234.25
2023-08-23T08:47:16.638Z,101177.88
2023-08-23T08:49:20.855Z,101242.16
2023-08-23T08:51:28.260Z,101242.00
2023-08-23T08:53:33.452Z,101244.66
2023-08-23T08:55:37.818Z,101251.56
2023-08-23T08:57:41.734Z,101245.44
2023-08-23T08:59:47.635Z,101252.44
2023-08-23T09:01:52.568Z,101249.66
2023-08-23T09:03:56.202Z,101249.66
2023-08-23T09:05:59.794Z,101251.28
2023-08-23T09:08:04.735Z,101239.66
2023-08-23T09:10:08.782Z,101243.06
2023-08-23T09:12:12.382Z,101242.16
2023-08-23T09:14:17.980Z,101231.56
2023-08-23T09:16:21.560Z,101242.03
2023-08-23T09:18:24.923Z,101244.34
2023-08-23T09:20:28.622Z,101235.41
2023-08-23T09:22:33.827Z,101237.13
2023-08-23T09:24:38.907Z,101231.00
2023-08-23T09:26:42.625Z,101243.41
2023-08-23T09:28:46.287Z,101239.75
2023-08-23T09:30:50.853Z,101233.66
2023-08-23T09:32:53.431Z,101231.59
2023-08-23T09:34:57.371Z,101229.72
2023-08-23T09:37:07.668Z,101226.41
2023-08-23T09:39:12.888Z,101221.78
2023-08-23T09:41:17.640Z,101223.06
2023-08-23T09:43:23.152Z,101220.16
2023-08-23T09:45:26.702Z,101227.00
2023-08-23T09:47:34.031Z,101204.38
2023-08-23T09:49:40.123Z,101216.50
2023-08-23T09:51:44.262Z,101220.50
2023-08-23T09:53:54.639Z,101220.88
2023-08-23T09:56:00.281Z,101218.22
2023-08-23T09:58:05.590Z,101222.19
2023-08-23T10:00:10.454Z,101216.59
2023-08-23T10:02:17.769Z,101207.59
2023-08-23T10:04:21.860Z,101215.34
2023-08-23T10:06:25.654Z,101216.34
2023-08-23T10:08:29.197Z,101203.72
2023-08-23T10:10:33.185Z,101200.91
2023-08-23T10:12:38.479Z,101205.38
2023-08-23T10:14:47.120Z,101206.56
2023-08-23T10:16:50.704Z,101206.53
2023-08-23T10:18:55.030Z,101197.78
2023-08-23T10:20:58.580Z,101204.41
2023-08-23T10:23:01.271Z,101200.28
2023-08-23T10:25:16.313Z,101198.41
2023-08-23T10:27:19.698Z,101197.94
2023-08-23T10:29:28.583Z,101200.69
2023-08-23T10:31:33.376Z,101180.41
2023-08-23T10:33:42.073Z,101180.81
2023-08-23T10:35:45.645Z,101201.72
2023-08-23T10:37:49.471Z,101182.72
2023-08-23T10:39:55.696Z,101208.84
2023-08-23T10:41:59.142Z,101197.28
2023-08-23T10:44:02.557Z,101199.31
2023-08-23T10:46:08.354Z,101199.16
2023-08-23T10:48:13.460Z,101204.38
2023-08-23T10:50:17.282Z,101210.19
2023-08-23T10:52:21.823Z,101191.16
2023-08-23T10:54:26.628Z,101209.44
2023-08-23T10:56:30.486Z,101225.38
2023-08-23T10:58:34.432Z,101218.69
2023-08-23T11:00:38.160Z,101215.41
2023-08-23T11:02:42.929Z,101219.84
2023-08-23T11:04:48.317Z,101220.88
2023-08-23T11:06:52.494Z,101213.84
2023-08-23T11:08:55.846Z,101215.91
2023-08-23T11:10:59.799Z,101206.88
2023-08-23T11:13:03.194Z,101202.78
2023-08-23T11:15:07.834Z,101199.03
2023-08-23T11:17:11.954Z,101202.47
2023-08-23T11:19:15.555Z,101198.72
2023-08-23T11:21:20.332Z,101195.94
2023-08-23T11:23:23.688Z,101190.88
2023-08-23T11:25:26.245Z,101203.25
2023-08-23T11:27:30.153Z,101201.72
2023-08-23T11:29:33.525Z,101210.97
2023-08-23T11:31:37.571Z,101204.13
2023-08-23T11:33:41.299Z,101216.13
2023-08-23T11:35:44.682Z,101213.72
2023-08-23T11:37:51.789Z,101191.88
2023-08-23T11:39:57.242Z,101210.19
2023-08-23T11:42:01.130Z,101192.75
2023-08-23T11:44:05.871Z,101208.28
2023-08-23T11:46:09.466Z,101208.78
2023-08-23T11:48:13.052Z,101198.84
2023-08-23T11:50:16.453Z,101213.31
2023-08-23T11:52:19.940Z,101202.59
2023-08-23T11:54:24.644Z,101204.16
2023-08-23T11:56:28.091Z,101199.00
2023-08-23T11:58:31.509Z,101214.72
2023-08-23T12:00:35.544Z,101203.00
2023-08-23T12:02:39.034Z,101202.41
2023-08-23T12:04:43.312Z,101193.25
2023-08-23T12:06:46.806Z,101199.28
2023-08-23T12:08:50.382Z,101195.28
2023-08-23T12:10:55.181Z,101199.97
2023-08-23T12:12:58.583Z,101211.38
2023-08-23T12:15:02.104Z,101201.59
2023-08-23T12:17:05.477Z,101201.47
2023-08-23T12:19:25.354Z,101200.53
2023-08-23T12:21:32.537Z,101201.31
2023-08-23T12:23:35.973Z,101197.16
2023-08-23T12:25:39.369Z,101188.44
2023-08-23T12:27:44.362Z,101191.69
2023-08-23T12:29:47.696Z,101189.41
2023-08-23T12:31:51.087Z,101181.97
2023-08-23T12:33:54.612Z,101172.75
2023-08-23T12:35:58.398Z,101171.78
2023-08-23T12:38:02.152Z,101166.16
2023-08-23T12:40:09.674Z,101170.75
2023-08-23T12:42:13.004Z,101162.47
2023-08-23T12:44:17.786Z,101173.88
2023-08-23T12:46:23.121Z,101167.38
2023-08-23T12:48:26.859Z,101157.66
2023-08-23T12:50:30.261Z,101168.22
2023-08-23T12:52:33.632Z,101172.13
2023-08-23T12:54:37.083Z,101176.69
2023-08-23T12:56:40.998Z,101179.56
2023-08-23T12:58:44.999Z,101175.66
2023-08-23T13:00:50.011Z,101159.22
2023-08-23T13:02:52.619Z,101176.88
2023-08-23T13:04:56.059Z,101169.56
2023-08-23T13:06:59.488Z,101166.19
2023-08-23T13:09:04.022Z,101166.13
2023-08-23T13:11:08.190Z,101165.84
2023-08-23T13:13:12.387Z,101175.91
2023-08-23T13:15:15.935Z,101172.44
2023-08-23T13:17:21.056Z,101168.41
2023-08-23T13:19:24.913Z,101143.41
2023-08-23T13:21:28.446Z,101168.72
2023-08-23T13:23:31.896Z,101165.66
2023-08-23T13:25:35.274Z,101160.69
2023-08-23T13:27:38.646Z,101160.31
2023-08-23T13:29:45.462Z,101151.59
2023-08-23T13:31:48.852Z,101154.50
2023-08-23T13:33:53.595Z,101156.25
2023-08-23T13:35:56.965Z,101150.16
2023-08-23T13:38:00.426Z,101142.75
2023-08-23T13:40:04.885Z,101140.22
2023-08-23T13:42:08.682Z,101150.41
2023-08-23T13:44:12.225Z,101150.91
2023-08-23T13:46:15.603Z,101149.22
2023-08-23T13:48:19.151Z,101139.88
2023-08-23T13:50:24.042Z,101142.84
2023-08-23T13:52:27.538Z,101120.00
2023-08-23T13:54:30.888Z,101129.13
2023-08-23T13:56:33.579Z,101126.91
2023-08-23T13:58:37.011Z,101127.41
2023-08-23T14:00:40.470Z,101131.56
2023-08-23T14:02:44.099Z,101139.25
2023-08-23T14:04:47.560Z,101126.91
2023-08-23T14:06:52.322Z,101125.50
2023-08-23T14:08:55.704Z,101118.06
2023-08-23T14:10:59.917Z,101122.97
2023-08-23T14:13:03.335Z,101097.25
2023-08-23T14:15:07.981Z,101122.69
2023-08-23T14:17:11.497Z,101122.94
2023-08-23T14:19:15.036Z,101122.44
2023-08-23T14:21:18.571Z,101119.50
2023-08-23T14:23:23.300Z,101119.00
2023-08-23T14:25:26.727Z,101112.13
2023-08-23T14:27:32.727Z,101110.78
2023-08-23T14:29:36.529Z,101110.72
2023-08-23T14:31:40.061Z,101122.31
2023-08-23T14:33:45.701Z,101120.75
2023-08-23T14:35:49.274Z,101122.31
2023-08-23T14:37:53.225Z,101124.13
2023-08-23T14:39:58.163Z,101129.22
2023-08-23T14:42:02.134Z,101127.09
2023-08-23T14:44:05.865Z,101119.75
2023-08-23T14:46:09.822Z,101114.09
2023-08-23T14:48:13.322Z,101115.63
2023-08-23T14:50:16.742Z,101122.53
2023-08-23T14:52:20.881Z,101108.84
2023-08-23T14:54:24.389Z,101107.44
2023-08-23T14:56:29.143Z,101108.66
2023-08-23T14:58:32.545Z,101112.72
2023-08-23T15:00:35.130Z,101111.31
2023-08-23T15:02:38.516Z,101111.44
2023-08-23T15:04:44.186Z,101107.03
2023-08-23T15:06:47.570Z,101092.59
2023-08-23T15:08:51.096Z,101096.53
2023-08-23T15:10:57.887Z,101102.78
2023-08-23T15:13:02.670Z,101098.88
2023-08-23T15:15:07.311Z,101086.81
2023-08-23T15:17:10.746Z,101095.72
2023-08-23T15:19:14.142Z,101089.78
2023-08-23T15:21:17.551Z,101102.50
2023-08-23T15:23:21.060Z,101099.09
2023-08-23T15:25:24.481Z,101106.06
2023-08-23T15:27:41.065Z,101101.34
2023-08-23T15:30:05.514Z,101103.84
2023-08-23T15:32:11.830Z,101101.31
2023-08-23T15:34:15.312Z,101104.25
2023-08-23T15:36:18.857Z,101104.47
2023-08-23T15:38:22.224Z,101095.16
2023-08-23T15:40:28.081Z,101085.00
2023-08-23T15:42:31.956Z,101103.47
2023-08-23T15:44:35.347Z,101104.59
2023-08-23T15:46:40.313Z,101099.38
2023-08-23T15:48:43.757Z,101095.44
2023-08-23T15:50:47.387Z,101102.34
2023-08-23T15:52:50.734Z,101096.25
2023-08-23T15:54:53.175Z,101101.13
2023-08-23T15:56:56.598Z,101107.25
2023-08-23T15:59:00.005Z,101043.41
2023-08-23T16:01:03.392Z,101103.06
2023-08-23T16:03:08.384Z,101099.53
2023-08-23T16:05:12.756Z,101089.53
2023-08-23T16:07:16.116Z,101092.16
2023-08-23T16:09:19.504Z,101096.16
2023-08-23T16:11:22.918Z,101090.84
2023-08-23T16:13:25.447Z,101094.09
2023-08-23T16:15:29.008Z,101086.44
2023-08-23T16:17:32.471Z,101093.53
2023-08-23T16:19:37.813Z,101088.97
2023-08-23T16:21:42.362Z,101077.78
2023-08-23T16:23:45.944Z,101081.13
2023-08-23T16:25:51.457Z,101080.00
2023-08-23T16:27:54.876Z,101083.19
2023-08-23T16:29:59.926Z,101074.69
2023-08-23T16:32:03.286Z,101079.13
2023-08-23T16:34:06.792Z,101077.25
2023-08-23T16:36:11.561Z,101078.53
2023-08-23T16:38:14.911Z,101077.16
2023-08-23T16:40:17.302Z,101083.34
2023-08-23T16:42:20.838Z,101075.34
2023-08-23T16:44:24.254Z,101068.13
2023-08-23T16:46:28.249Z,101065.88
2023-08-23T16:48:31.919Z,101061.56
2023-08-23T16:50:35.467Z,101064.25
2023-08-23T16:52:40.196Z,101066.31
2023-08-23T16:54:43.607Z,101060.41
2023-08-23T16:56:47.131Z,101054.66
2023-08-23T16:58:50.540Z,101060.91
2023-08-23T17:00:54.169Z,101064.19
2023-08-23T17:02:56.684Z,101064.69
2023-08-23T17:05:00.115Z,101056.31
2023-08-23T17:07:03.574Z,101060.72
2023-08-23T17:09:08.407Z,101054.47
2023-08-23T17:11:12.514Z,101059.66
2023-08-23T17:13:17.088Z,101057.78
2023-08-23T17:15:20.524Z,101056.56
2023-08-23T17:17:25.412Z,101058.25
2023-08-23T17:19:29.058Z,101049.81
2023-08-23T17:21:32.463Z,101056.88
2023-08-23T17:23:36.409Z,101060.84
2023-08-23T17:25:42.164Z,101052.50
2023-08-23T17:27:45.609Z,101057.66
2023-08-23T17:29:49.658Z,101053.69
2023-08-23T17:31:53.131Z,101031.22
2023-08-23T17:33:56.567Z,101050.56
2023-08-23T17:35:59.974Z,101046.47
2023-08-23T17:38:04.529Z,101039.94
2023-08-23T17:40:09.158Z,101053.78
2023-08-23T17:42:13.968Z,101047.28
2023-08-23T17:44:19.440Z,101045.00
2023-08-23T17:46:37.382Z,101056.78
2023-08-23T17:48:40.851Z,101052.75
2023-08-23T17:50:44.375Z,101046.31
2023-08-23T17:52:50.004Z,101042.28
2023-08-23T17:54:55.244Z,101043.53
2023-08-23T17:56:59.698Z,101044.75
2023-08-23T17:59:04.624Z,101014.22
2023-08-23T18:01:14.827Z,101034.59
2023-08-23T18:03:18.384Z,101036.00
2023-08-23T18:05:22.340Z,101029.97
2023-08-23T18:07:25.881Z,101046.31
2023-08-23T18:09:29.273Z,100973.03
2023-08-23T18:11:31.880Z,101047.34
2023-08-23T18:13:35.560Z,101041.06
2023-08-23T18:15:40.425Z,101045.56
2023-08-23T18:17:43.926Z,101043.78
2023-08-23T18:19:46.342Z,101043.09
2023-08-23T18:21:49.803Z,101037.53
2023-08-23T18:23:55.913Z,101037.03
2023-08-23T18:25:59.348Z,101042.34
2023-08-23T18:28:04.669Z,101043.28
2023-08-23T18:30:09.327Z,101041.19
2023-08-23T18:32:14.793Z,101041.06
2023-08-23T18:34:18.249Z,101048.44
2023-08-23T18:36:20.698Z,101037.81
2023-08-23T18:38:24.063Z,101043.44
2023-08-23T18:40:28.250Z,101055.09
2023-08-23T18:42:31.630Z,101048.88
2023-08-23T18:44:35.107Z,101054.03
2023-08-23T18:46:38.595Z,101046.03
2023-08-23T18:48:43.515Z,101052.16
2023-08-23T18:50:47.133Z,101056.47
2023-08-23T18:52:51.512Z,101057.91
2023-08-23T18:54:55.127Z,101057.81
2023-08-23T18:56:58.513Z,101062.19
2023-08-23T18:59:02.505Z,101056.47
2023-08-23T19:01:05.936Z,101054.44
2023-08-23T19:03:09.641Z,101055.50
2023-08-23T19:05:20.377Z,101047.94
2023-08-23T19:07:23.907Z,101057.69
2023-08-23T19:09:27.423Z,101061.38
2023-08-23T19:11:30.791Z,101060.00
2023-08-23T19:13:34.237Z,101049.84
2023-08-23T19:15:39.460Z,101053.81
2023-08-23T19:17:46.006Z,101058.13
2023-08-23T19:19:50.063Z,101056.06
2023-08-23T19:21:57.386Z,101049.03
2023-08-23T19:24:00.879Z,101050.66
2023-08-23T19:26:04.254Z,101055.72
2023-08-23T19:28:07.616Z,101044.88
2023-08-23T19:30:11.721Z,101055.25
2023-08-23T19:32:15.071Z,101064.44
2023-08-23T19:34:18.493Z,101064.44
2023-08-23T19:36:22.038Z,101061.25
2023-08-23T19:38:26.796Z,101052.91
2023-08-23T19:40:30.174Z,101061.41
2023-08-23T19:42:33.673Z,101065.28
2023-08-23T19:44:37.047Z,101063.84
2023-08-23T19:46:40.513Z,101054.13
2023-08-23T19:48:44.023Z,101051.84
2023-08-23T19:50:47.504Z,101051.94
2023-08-23T19:52:51.406Z,101055.50
2023-08-23T19:54:56.183Z,101052.09
2023-08-23T19:56:59.818Z,101051.41
2023-08-23T19:59:03.173Z,101049.06
2023-08-23T20:01:06.598Z,101046.38
2023-08-23T20:03:12.075Z,101031.34
2023-08-23T20:05:16.956Z,101039.25
2023-08-23T20:07:24.768Z,101041.94
2023-08-23T20:09:28.162Z,101036.59
2023-08-23T20:11:31.947Z,101038.25
2023-08-23T20:13:36.290Z,101041.22
2023-08-23T20:15:44.787Z,101043.81
2023-08-23T20:17:49.778Z,101033.59
2023-08-23T20:19:53.454Z,101037.00
2023-08-23T20:21:56.813Z,101040.91
2023-08-23T20:24:00.305Z,101045.44
2023-08-23T20:26:03.933Z,101039.19
2023-08-23T20:28:08.754Z,101038.28
2023-08-23T20:30:12.531Z,101040.09
2023-08-23T20:32:15.910Z,101038.28
2023-08-23T20:34:19.239Z,100968.03
2023-08-23T20:36:25.134Z,101035.59
2023-08-23T20:38:28.530Z,101037.59
2023-08-23T20:40:32.447Z,101036.84
2023-08-23T20:42:35.972Z,101045.72
2023-08-23T20:44:40.121Z,101034.09
2023-08-23T20:46:45.162Z,101035.16
2023-08-23T20:48:49.830Z,101032.72
2023-08-23T20:50:53.184Z,101030.34
2023-08-23T20:52:56.741Z,101031.88
2023-08-23T20:54:59.569Z,101022.16
2023-08-23T20:57:03.825Z,101029.97
2023-08-23T20:59:07.180Z,101027.47
2023-08-23T21:01:13.617Z,101009.88
2023-08-23T21:03:18.600Z,101027.72
2023-08-23T21:05:21.970Z,101032.19
2023-08-23T21:07:25.434Z,101023.44
2023-08-23T21:09:28.784Z,101031.28
2023-08-23T21:11:31.313Z,101017.47
2023-08-23T21:13:34.785Z,101036.88
2023-08-23T21:15:44.273Z,101033.66
2023-08-23T21:17:49.224Z,101023.19
2023-08-23T21:19:52.855Z,101025.09
2023-08-23T21:21:56.174Z,101025.91
2023-08-23T21:23:59.642Z,101023.44
2023-08-23T21:26:02.971Z,101025.34
2023-08-23T21:28:08.118Z,101020.69
2023-08-23T21:30:12.463Z,101021.34
2023-08-23T21:32:15.840Z,101011.41
2023-08-23T21:34:20.605Z,101007.28
2023-08-23T21:36:23.936Z,101007.66
2023-08-23T21:38:27.465Z,100998.25
2023-08-23T21:40:33.081Z,101000.59
2023-08-23T21:42:36.538Z,100997.53
2023-08-23T21:44:40.092Z,100992.84
2023-08-23T21:46:43.430Z,100994.75
2023-08-23T21:48:46.910Z,100994.03
2023-08-23T21:50:52.785Z,101001.91
2023-08-23T21:52:56.138Z,100997.75
2023-08-23T21:54:59.715Z,101000.19
2023-08-23T21:57:03.097Z,101002.75
2023-08-23T21:59:09.715Z,100999.31
2023-08-23T22:01:13.290Z,100992.31
2023-08-23T22:03:22.279Z,100984.19
2023-08-23T22:05:25.796Z,100985.97
2023-08-23T22:07:30.483Z,100989.84
2023-08-23T22:09:36.256Z,101000.56
2023-08-23T22:11:39.605Z,101003.16
2023-08-23T22:13:42.467Z,100996.06
2023-08-23T22:15:45.994Z,100988.22
2023-08-23T22:17:49.689Z,100988.50
2023-08-23T22:19:53.361Z,100984.28
2023-08-23T22:21:56.806Z,100994.94
2023-08-23T22:24:01.539Z,100995.88
2023-08-23T22:26:04.998Z,100985.22
2023-08-23T22:28:08.385Z,100987.88
2023-08-23T22:30:12.311Z,100983.78
2023-08-23T22:32:15.729Z,100986.16
2023-08-23T22:34:19.099Z,100986.06
2023-08-23T22:36:22.518Z,100984.31
2023-08-23T22:38:25.573Z,100985.22
2023-08-23T22:40:30.345Z,100983.56
2023-08-23T22:42:33.764Z,100958.88
2023-08-23T22:44:37.199Z,100979.91
2023-08-23T22:46:40.692Z,100979.16
2023-08-23T22:48:44.129Z,100973.22
2023-08-23T22:50:48.026Z,100976.78
2023-08-23T22:52:50.413Z,100978.69
2023-08-23T22:54:53.832Z,100980.34
2023-08-23T22:56:58.525Z,100988.25
2023-08-23T22:59:01.869Z,100989.19
2023-08-23T23:01:06.397Z,100985.59
2023-08-23T23:03:09.871Z,100988.13
2023-08-23T23:05:13.616Z,100979.97
2023-08-23T23:07:15.979Z,100985.28
2023-08-23T23:09:21.133Z,100986.97
2023-08-23T23:11:24.508Z,100991.66
2023-08-23T23:13:30.016Z,100983.13
2023-08-23T23:15:33.461Z,100967.44
2023-08-23T23:17:38.245Z,100968.19
2023-08-23T23:19:41.796Z,100969.88
2023-08-23T23:21:45.146Z,100967.25
2023-08-23T23:23:48.499Z,100976.78
2023-08-23T23:25:51.866Z,100975.81
2023-08-23T23:27:55.203Z,100972.38
2023-08-23T23:29:59.918Z,100970.91
2023-08-23T23:32:04.189Z,100976.16
2023-08-23T23:34:08.214Z,100974.28
2023-08-23T23:36:12.066Z,100974.41
2023-08-23T23:38:14.523Z,100981.41